Time;durP1;ratioP1;P1;durP2;ratioP2;P2;SDS_P1;SDS_P2;PMS_P1;PMS_P2;Temp;Humidity;BMP_temperature;BMP_pressure;BME280_temperature;BME280_humidity;BME280_pressure;Samples;Min_cycle;Max_cycle;Signal;HPM_P1;HPM_P2
2023/08/23 00:01:31;;;;;;;0.00;0.00;;;;;;;17.13;100.00;102040.22;5072147;28;20497;-44
2023/08/23 00:03:56;;;;;;;0.00;0.00;;;;;;;17.11;100.00;102026.84;5055739;28;20029;-44
2023/08/23 00:06:21;;;;;;;0.00;0.00;;;;;;;17.10;100.00;102030.59;5073503;28;20060;-45
2023/08/23 00:08:47;;;;;;;0.00;0.00;;;;;;;17.09;100.00;102028.09;5073638;28;20013;-45
2023/08/23 00:11:12;;;;;;;0.00;0.00;;;;;;;17.06;100.00;102023.88;5074345;28;20106;-44
2023/08/23 00:13:37;;;;;;;0.00;0.00;;;;;;;17.05;100.00;102016.72;5073671;28;20429;-47
2023/08/23 00:16:03;;;;;;;0.00;0.00;;;;;;;17.03;100.00;102028.84;5073407;28;20063;-48
2023/08/23 00:18:28;;;;;;;0.00;0.00;;;;;;;17.03;100.00;102028.84;5085455;28;20028;-45
2023/08/23 00:20:53;;;;;;;0.00;0.00;;;;;;;17.02;100.00;102028.00;5076815;28;20032;-46
2023/08/23 00:23:19;;;;;;;0.00;0.00;;;;;;;17.02;100.00;102027.16;5073108;28;20024;-47
2023/08/23 00:25:44;;;;;;;0.00;0.00;;;;;;;17.02;100.00;102019.00;5073409;28;20078;-44
2023/08/23 00:28:09;;;;;;;0.00;0.00;;;;;;;17.03;100.00;102023.41;5072964;28;20514;-45
2023/08/23 00:30:35;;;;;;;0.00;0.00;;;;;;;17.00;100.00;102013.75;5073220;28;20391;-44
2023/08/23 00:33:01;;;;;;;0.00;0.00;;;;;;;16.99;100.00;102017.53;5072807;28;20032;-45
2023/08/23 00:35:27;;;;;;;0.00;0.00;;;;;;;16.98;100.00;102009.56;5072589;28;20430;-44
2023/08/23 00:37:52;;;;;;;0.00;0.00;;;;;;;16.92;100.00;101999.47;5073706;28;20029;-50
2023/08/23 00:40:19;;;;;;;0.00;0.00;;;;;;;16.90;100.00;102007.81;5073547;28;20039;-47
2023/08/23 00:42:44;;;;;;;0.00;0.00;;;;;;;16.86;100.00;102012.81;5072998;28;20024;-45
2023/08/23 00:45:09;;;;;;;0.00;0.00;;;;;;;16.86;100.00;102011.97;5072876;28;20031;-47
2023/08/23 00:47:35;;;;;;;0.00;0.00;;;;;;;16.86;100.00;102001.94;5080860;28;20173;-48
2023/08/23 00:50:01;;;;;;;0.00;0.00;;;;;;;16.87;100.00;102003.59;5093567;28;20031;-46
2023/08/23 00:52:27;;;;;;;0.00;0.00;;;;;;;16.87;100.00;102003.59;5075130;28;20391;-46
2023/08/23 00:54:53;;;;;;;0.00;0.00;;;;;;;16.85;100.00;102010.28;5076405;28;20033;-48
2023/08/23 00:57:20;;;;;;;0.00;0.00;;;;;;;16.86;100.00;102004.66;5057313;28;20029;-47
2023/08/23 00:59:45;;;;;;;0.00;0.00;;;;;;;16.87;100.00;102003.59;5057602;28;20039;-45
2023/08/23 01:02:10;;;;;;;0.00;0.00;;;;;;;16.88;100.00;102004.47;5074321;28;20044;-46
2023/08/23 01:04:37;;;;;;;0.00;0.00;;;;;;;16.91;100.00;102012.22;5073966;28;20048;-44
2023/08/23 01:07:13;;;;;;;0.00;0.00;;;;;;;16.93;100.00;102012.88;5076549;28;20082;-47
2023/08/23 01:09:39;;;;;;;0.00;0.00;;;;;;;16.94;100.00;102002.84;5074150;28;20363;-46
2023/08/23 01:12:15;;;;;;;0.00;0.00;;;;;;;16.93;100.00;102003.84;5072406;28;20032;-47
2023/08/23 01:15:01;;;;;;;0.00;0.00;;;;;;;16.95;100.00;102004.50;5071990;28;20119;-45
2023/08/23 01:17:27;;;;;;;0.00;0.00;;;;;;;16.96;100.00;102009.75;5066576;28;20060;-49
2023/08/23 01:19:53;;;;;;;0.00;0.00;;;;;;;16.96;100.00;102006.22;5054198;28;20494;-49
2023/08/23 01:22:22;;;;;;;0.00;0.00;;;;;;;16.99;100.00;102008.53;5072194;28;20107;-47
2023/08/23 01:24:48;;;;;;;0.00;0.00;;;;;;;17.01;100.00;102009.16;5078549;28;20040;-48
2023/08/23 01:27:16;;;;;;;0.00;0.00;;;;;;;17.01;100.00;102001.84;5084132;28;20040;-48
2023/08/23 01:29:44;;;;;;;0.00;0.00;;;;;;;16.98;100.00;102004.13;5084104;28;20028;-50
2023/08/23 01:32:21;;;;;;;0.00;0.00;;;;;;;16.97;100.00;102002.44;5075976;28;20025;-50
2023/08/23 01:34:54;;;;;;;0.00;0.00;;;;;;;16.93;100.00;102001.13;5071923;28;20032;-51
2023/08/23 01:37:20;;;;;;;0.00;0.00;;;;;;;16.82;100.00;101989.75;5038763;28;20218;-50
2023/08/23 01:39:46;;;;;;;0.00;0.00;;;;;;;16.77;100.00;101992.25;5056440;28;20104;-45
2023/08/23 01:42:11;;;;;;;0.00;0.00;;;;;;;16.76;100.00;101992.38;5056986;28;20021;-47
2023/08/23 01:44:37;;;;;;;0.00;0.00;;;;;;;16.76;100.00;101987.78;5072920;28;20037;-45
2023/08/23 01:47:03;;;;;;;0.00;0.00;;;;;;;16.75;100.00;101980.69;5090014;28;20411;-47
2023/08/23 01:49:28;;;;;;;0.00;0.00;;;;;;;16.73;100.00;101981.91;5085660;28;20025;-48
2023/08/23 01:51:54;;;;;;;0.00;0.00;;;;;;;16.68;100.00;101979.75;5072292;28;20051;-47
2023/08/23 01:54:19;;;;;;;0.00;0.00;;;;;;;16.62;100.00;101986.81;5091973;28;20530;-48
2023/08/23 01:56:44;;;;;;;0.00;0.00;;;;;;;16.58;100.00;101984.69;5072216;28;20402;-46
2023/08/23 01:59:10;;;;;;;0.00;0.00;;;;;;;16.56;100.00;101981.31;5074772;28;20036;-51
2023/08/23 02:01:35;;;;;;;0.00;0.00;;;;;;;16.54;100.00;101980.69;5074005;28;20055;-49
2023/08/23 02:04:00;;;;;;;0.00;0.00;;;;;;;16.52;100.00;101983.59;5054832;28;20436;-46
2023/08/23 02:06:26;;;;;;;0.00;0.00;;;;;;;16.54;100.00;101981.53;5071806;28;20542;-48
2023/08/23 02:08:51;;;;;;;0.00;0.00;;;;;;;16.55;100.00;101985.91;5072258;28;20021;-46
2023/08/23 02:11:16;;;;;;;0.00;0.00;;;;;;;16.54;100.00;101997.81;5091749;28;20027;-47
2023/08/23 02:13:42;;;;;;;0.00;0.00;;;;;;;16.53;100.00;101992.56;5075567;28;20467;-48
2023/08/23 02:16:07;;;;;;;0.00;0.00;;;;;;;16.53;100.00;101990.69;5071620;28;20028;-48
2023/08/23 02:18:32;;;;;;;0.00;0.00;;;;;;;16.54;100.00;101988.84;5071315;28;20074;-47
2023/08/23 02:20:58;;;;;;;0.00;0.00;;;;;;;16.55;100.00;101990.50;5071288;28;20035;-47
2023/08/23 02:23:24;;;;;;;0.00;0.00;;;;;;;16.54;100.00;101991.56;5077087;28;20398;-45
2023/08/23 02:25:50;;;;;;;0.00;0.00;;;;;;;16.53;100.00;101993.41;5071483;28;20636;-45
2023/08/23 02:28:15;;;;;;;0.00;0.00;;;;;;;16.52;100.00;101993.63;5071855;28;20031;-46
2023/08/23 02:30:41;;;;;;;0.00;0.00;;;;;;;16.51;100.00;101975.63;5071846;28;20418;-48
2023/08/23 02:33:06;;;;;;;0.00;0.00;;;;;;;16.45;100.00;101972.63;5071824;28;20038;-50
2023/08/23 02:35:32;;;;;;;0.00;0.00;;;;;;;16.38;100.00;101971.75;5070815;28;20060;-49
2023/08/23 02:37:57;;;;;;;0.00;0.00;;;;;;;16.34;100.00;101965.00;5070899;28;20031;-45
2023/08/23 02:40:23;;;;;;;0.00;0.00;;;;;;;16.38;100.00;101977.19;5072738;28;20119;-45
2023/08/23 02:42:48;;;;;;;0.00;0.00;;;;;;;16.40;100.00;101988.69;5072923;28;20093;-45
2023/08/23 02:45:14;;;;;;;0.00;0.00;;;;;;;16.45;100.00;101985.38;5072470;28;20024;-47
2023/08/23 02:47:40;;;;;;;0.00;0.00;;;;;;;16.52;100.00;101999.06;5054197;28;20048;-45
2023/08/23 02:50:05;;;;;;;0.00;0.00;;;;;;;16.56;100.00;101989.47;5072348;28;20103;-45
2023/08/23 02:52:31;;;;;;;0.00;0.00;;;;;;;16.58;100.00;101981.97;5073846;28;20479;-47
2023/08/23 02:54:56;;;;;;;0.00;0.00;;;;;;;16.60;100.00;101985.34;5071221;28;20016;-45
2023/08/23 02:57:22;;;;;;;0.00;0.00;;;;;;;16.64;100.00;101981.19;5076827;28;20058;-47
2023/08/23 02:59:47;;;;;;;0.00;0.00;;;;;;;16.70;100.00;101979.59;5090994;28;20027;-47
2023/08/23 03:02:12;;;;;;;0.00;0.00;;;;;;;16.73;100.00;101980.03;5088492;28;20078;-47
2023/08/23 03:04:38;;;;;;;0.00;0.00;;;;;;;16.74;100.00;101978.97;5070486;28;20024;-46
2023/08/23 03:07:03;;;;;;;0.00;0.00;;;;;;;16.78;100.00;101988.47;5070834;28;20538;-47
2023/08/23 03:09:29;;;;;;;0.00;0.00;;;;;;;16.80;100.00;101988.28;5070963;28;20033;-46
2023/08/23 03:11:54;;;;;;;0.00;0.00;;;;;;;16.78;100.00;101988.47;5071133;28;20029;-45
2023/08/23 03:14:19;;;;;;;0.00;0.00;;;;;;;16.77;100.00;101984.09;5071467;28;20029;-47
2023/08/23 03:16:45;;;;;;;0.00;0.00;;;;;;;16.74;100.00;101987.13;5075249;28;20387;-46
2023/08/23 03:19:10;;;;;;;0.00;0.00;;;;;;;16.73;100.00;101988.19;5091731;28;20403;-47
2023/08/23 03:21:35;;;;;;;0.00;0.00;;;;;;;16.72;100.00;101986.50;5080396;28;20108;-45
2023/08/23 03:24:01;;;;;;;0.00;0.00;;;;;;;16.69;100.00;101995.03;5071160;28;20058;-48
2023/08/23 03:26:26;;;;;;;0.00;0.00;;;;;;;16.66;100.00;101990.81;5071616;28;20059;-45
2023/08/23 03:28:51;;;;;;;0.00;0.00;;;;;;;16.62;100.00;101988.72;5071449;28;20021;-46
2023/08/23 03:31:17;;;;;;;0.00;0.00;;;;;;;16.57;100.00;101986.56;5085431;28;20123;-46
2023/08/23 03:33:42;;;;;;;0.00;0.00;;;;;;;16.57;100.00;101988.44;5068807;28;20035;-47
2023/08/23 03:36:07;;;;;;;0.00;0.00;;;;;;;16.57;100.00;101992.00;5074688;28;20028;-46
2023/08/23 03:38:33;;;;;;;0.00;0.00;;;;;;;16.58;100.00;101995.56;5074496;28;20367;-48
2023/08/23 03:40:58;;;;;;;0.00;0.00;;;;;;;16.57;100.00;101997.44;5078403;28;20036;-49
2023/08/23 03:43:24;;;;;;;0.00;0.00;;;;;;;16.58;100.00;102001.00;5074052;28;20032;-47
2023/08/23 03:45:50;;;;;;;0.00;0.00;;;;;;;16.58;100.00;101987.41;5056145;28;20466;-48
2023/08/23 03:48:18;;;;;;;0.00;0.00;;;;;;;16.56;100.00;101989.47;5076247;28;20044;-49
2023/08/23 03:50:43;;;;;;;0.00;0.00;;;;;;;16.54;100.00;101986.13;5084809;28;20108;-43
2023/08/23 03:53:09;;;;;;;0.00;0.00;;;;;;;16.55;100.00;101987.78;5078557;28;20111;-47
2023/08/23 03:55:36;;;;;;;0.00;0.00;;;;;;;16.55;100.00;101982.34;5055683;28;20823;-48
2023/08/23 03:58:03;;;;;;;0.00;0.00;;;;;;;16.56;100.00;101990.31;5073890;28;20032;-50
2023/08/23 04:00:28;;;;;;;0.00;0.00;;;;;;;16.57;100.00;101985.72;5057286;28;20118;-47
2023/08/23 04:02:54;;;;;;;0.00;0.00;;;;;;;16.57;100.00;101980.28;5073911;28;20032;-46
2023/08/23 04:05:19;;;;;;;0.00;0.00;;;;;;;16.55;100.00;101982.34;5055414;28;20439;-45
2023/08/23 04:07:44;;;;;;;0.00;0.00;;;;;;;16.57;100.00;101981.13;5090307;28;20360;-47
2023/08/23 04:10:10;;;;;;;0.00;0.00;;;;;;;16.57;100.00;101975.69;5088001;28;20071;-48
2023/08/23 04:12:35;;;;;;;0.00;0.00;;;;;;;16.61;100.00;101982.44;5074001;28;20487;-47
2023/08/23 04:15:00;;;;;;;0.00;0.00;;;;;;;16.65;100.00;101977.44;5073317;28;20039;-46
2023/08/23 04:17:26;;;;;;;0.00;0.00;;;;;;;16.66;100.00;101985.38;5073350;28;20529;-47
2023/08/23 04:19:51;;;;;;;0.00;0.00;;;;;;;16.60;100.00;101980.75;5073672;28;20461;-47
2023/08/23 04:22:16;;;;;;;0.00;0.00;;;;;;;16.60;100.00;101974.47;5093955;28;20032;-47
2023/08/23 04:24:42;;;;;;;0.00;0.00;;;;;;;16.61;100.00;101987.88;5093994;28;20020;-46
2023/08/23 04:27:07;;;;;;;0.00;0.00;;;;;;;16.60;100.00;101985.34;5087312;28;20021;-48
2023/08/23 04:29:34;;;;;;;0.00;0.00;;;;;;;16.59;100.00;101987.22;5081951;28;20089;-51
2023/08/23 04:31:59;;;;;;;0.00;0.00;;;;;;;16.60;100.00;101985.34;5074928;28;20036;-51
2023/08/23 04:34:24;;;;;;;0.00;0.00;;;;;;;16.64;100.00;101992.06;5073192;28;20038;-45
2023/08/23 04:36:50;;;;;;;0.00;0.00;;;;;;;16.67;100.00;101976.22;5072871;28;20043;-47
2023/08/23 04:39:15;;;;;;;0.00;0.00;;;;;;;16.69;100.00;101986.88;5073602;28;20542;-47
2023/08/23 04:41:41;;;;;;;0.00;0.00;;;;;;;16.75;100.00;101994.28;5078898;28;20108;-45
2023/08/23 04:44:06;;;;;;;0.00;0.00;;;;;;;16.75;100.00;101991.56;5093525;28;20380;-47
2023/08/23 04:46:31;;;;;;;0.00;0.00;;;;;;;16.79;100.00;101995.56;5092711;28;20084;-44
2023/08/23 04:48:57;;;;;;;0.00;0.00;;;;;;;16.80;100.00;101997.28;5087329;28;20429;-46
2023/08/23 04:51:23;;;;;;;0.00;0.00;;;;;;;16.83;100.00;102005.03;5080458;28;20235;-46
2023/08/23 04:53:49;;;;;;;0.00;0.00;;;;;;;16.84;100.00;101998.56;5080687;28;20394;-48
2023/08/23 04:56:14;;;;;;;0.00;0.00;;;;;;;16.86;100.00;102006.53;5072785;28;20025;-44
2023/08/23 04:58:39;;;;;;;0.00;0.00;;;;;;;16.88;100.00;102008.03;5073265;28;20052;-45
2023/08/23 05:01:05;;;;;;;0.00;0.00;;;;;;;16.89;100.00;102006.13;5072546;28;20050;-47
2023/08/23 05:03:34;;;;;;;0.00;0.00;;;;;;;16.94;100.00;102008.28;5081861;28;20031;-47
2023/08/23 05:06:00;;;;;;;0.00;0.00;;;;;;;16.96;100.00;102012.47;5077452;28;20639;-49
2023/08/23 05:08:27;;;;;;;0.00;0.00;;;;;;;17.01;100.00;102011.88;5073603;28;20039;-47
2023/08/23 05:10:53;;;;;;;0.00;0.00;;;;;;;17.04;100.00;102017.78;5072661;28;20020;-46
2023/08/23 05:13:19;;;;;;;0.00;0.00;;;;;;;17.08;100.00;102027.22;5067287;28;20016;-45
2023/08/23 05:15:44;;;;;;;0.00;0.00;;;;;;;17.12;100.00;102022.25;5074680;28;20040;-48
2023/08/23 05:18:10;;;;;;;0.00;0.00;;;;;;;17.18;100.00;102016.00;5072502;28;20082;-46
2023/08/23 05:20:36;;;;;;;0.00;0.00;;;;;;;17.22;100.00;102011.00;5072482;28;20039;-46
2023/08/23 05:23:02;;;;;;;0.00;0.00;;;;;;;17.30;100.00;102008.16;5076842;28;20111;-45
2023/08/23 05:25:28;;;;;;;0.00;0.00;;;;;;;17.39;100.00;102011.56;5072804;28;20401;-45
2023/08/23 05:27:53;;;;;;;0.00;0.00;;;;;;;17.38;100.00;102012.56;5078655;28;20506;-45
2023/08/23 05:30:18;;;;;;;0.00;0.00;;;;;;;17.43;100.00;102021.84;5077051;28;20016;-45
2023/08/23 05:32:44;;;;;;;0.00;0.00;;;;;;;17.40;100.00;102024.13;5077861;28;20071;-45
2023/08/23 05:35:10;;;;;;;0.00;0.00;;;;;;;17.49;100.00;102018.34;5072243;28;20108;-49
2023/08/23 05:37:35;;;;;;;0.00;0.00;;;;;;;17.54;100.00;102012.28;5071797;28;20020;-47
2023/08/23 05:40:01;;;;;;;0.00;0.00;;;;;;;17.62;100.00;102012.13;5072766;28;20029;-47
2023/08/23 05:42:26;;;;;;;0.00;0.00;;;;;;;17.67;100.00;102012.38;5070693;28;20445;-48
2023/08/23 05:44:52;;;;;;;0.00;0.00;;;;;;;17.74;100.00;102026.84;5080645;28;20024;-46
2023/08/23 05:47:17;;;;;;;0.00;0.00;;;;;;;17.72;100.00;102028.94;5049215;28;20056;-44
2023/08/23 05:49:42;;;;;;;0.00;0.00;;;;;;;17.69;100.00;102026.63;5053846;28;20098;-45
2023/08/23 05:52:08;;;;;;;0.00;0.00;;;;;;;17.68;100.00;102027.66;5071343;28;20028;-46
2023/08/23 05:54:33;;;;;;;0.00;0.00;;;;;;;17.66;100.00;102028.91;5070109;28;20036;-47
2023/08/23 05:56:59;;;;;;;0.00;0.00;;;;;;;17.67;100.00;102038.78;5049092;28;20024;-50
2023/08/23 05:59:26;;;;;;;0.00;0.00;;;;;;;17.66;100.00;102037.91;5073000;28;20086;-48
2023/08/23 06:01:51;;;;;;;0.00;0.00;;;;;;;17.71;100.00;102043.59;5080805;28;20051;-47
2023/08/23 06:04:16;;;;;;;0.00;0.00;;;;;;;17.74;100.00;102045.91;5090295;28;20024;-50
2023/08/23 06:06:42;;;;;;;0.10;0.05;;;;;;;17.71;100.00;102043.59;5072193;28;20025;-46
2023/08/23 06:09:07;;;;;;;0.10;0.10;;;;;;;17.73;100.00;102049.69;5070801;28;20028;-46
2023/08/23 06:11:33;;;;;;;0.05;0.05;;;;;;;17.75;100.00;102049.50;5076776;28;20115;-45
2023/08/23 06:13:58;;;;;;;0.00;0.00;;;;;;;17.73;100.00;102057.84;5072961;28;20061;-47
2023/08/23 06:16:23;;;;;;;0.10;0.10;;;;;;;17.72;100.00;102061.63;5083704;28;20036;-46
2023/08/23 06:18:49;;;;;;;0.00;0.00;;;;;;;17.78;100.00;102060.81;5073628;28;20153;-48
2023/08/23 06:21:14;;;;;;;0.00;0.00;;;;;;;17.84;100.00;102063.81;5058078;28;20032;-48
2023/08/23 06:23:43;;;;;;;0.00;0.00;;;;;;;17.94;100.00;102069.75;5070714;28;20020;-50
2023/08/23 06:26:09;;;;;;;0.00;0.00;;;;;;;17.99;100.00;102072.72;5071924;28;20082;-46
2023/08/23 06:28:34;;;;;;;0.00;0.00;;;;;;;18.06;100.00;102075.44;5084547;28;20035;-47
2023/08/23 06:31:00;;;;;;;0.00;0.00;;;;;;;18.07;100.00;102066.25;5064745;28;20039;-46
2023/08/23 06:33:25;;;;;;;0.00;0.00;;;;;;;18.17;100.00;102075.75;5079260;28;20129;-45
2023/08/23 06:35:50;;;;;;;0.00;0.00;;;;;;;18.16;100.00;102059.56;5053344;28;20025;-44
2023/08/23 06:38:16;;;;;;;0.00;0.00;;;;;;;18.28;100.00;102065.31;5068322;28;20629;-46
2023/08/23 06:40:42;;;;;;;0.00;0.00;;;;;;;18.37;100.00;102064.91;5066141;28;20032;-47
2023/08/23 06:43:10;;;;;;;0.00;0.00;;;;;;;18.43;100.00;102069.56;5069767;28;20025;-47
2023/08/23 06:45:35;;;;;;;;;;;;;;;18.53;100.00;102065.59;5071799;28;20047;-47
2023/08/23 06:48:01;;;;;;;0.10;0.00;;;;;;;18.67;100.00;102053.69;5050511;28;19908;-49
2023/08/23 06:50:26;;;;;;;0.00;0.00;;;;;;;18.57;100.00;102048.63;5070367;28;20352;-44
2023/08/23 06:52:51;;;;;;;0.00;0.00;;;;;;;18.60;100.00;102042.75;5069534;28;20360;-48
2023/08/23 06:55:19;;;;;;;0.00;0.00;;;;;;;18.74;100.00;102042.78;5067063;28;20094;-47
2023/08/23 06:57:45;;;;;;;0.00;0.00;;;;;;;18.93;100.00;102046.63;5070572;28;20029;-44
2023/08/23 07:00:12;;;;;;;0.00;0.00;;;;;;;19.20;100.00;102037.41;5069848;28;20039;-44
2023/08/23 07:02:37;;;;;;;0.00;0.00;;;;;;;19.34;100.00;102030.03;5070011;28;20064;-44
2023/08/23 07:05:03;;;;;;;0.00;0.00;;;;;;;19.75;100.00;102018.03;5069281;28;20458;-45
2023/08/23 07:07:28;;;;;;;0.00;0.00;;;;;;;20.41;100.00;102016.94;5077080;28;20062;-46
2023/08/23 07:09:53;;;;;;;0.00;0.00;;;;;;;20.83;100.00;101989.97;5075542;28;20525;-45
2023/08/23 07:12:19;;;;;;;0.00;0.00;;;;;;;20.72;100.00;101979.72;5073715;28;20032;-44
2023/08/23 07:14:46;;;;;;;0.00;0.00;;;;;;;21.27;100.00;101969.78;5060574;28;20053;-46
2023/08/23 07:17:12;;;;;;;0.00;0.00;;;;;;;21.68;100.00;101971.03;5068688;28;20086;-45
2023/08/23 07:19:37;;;;;;;0.00;0.00;;;;;;;21.80;100.00;101964.78;5065727;28;20033;-44
2023/08/23 07:22:03;;;;;;;0.00;0.00;;;;;;;21.85;100.00;101967.66;5059600;28;20026;-48
2023/08/23 07:24:29;;;;;;;0.00;0.00;;;;;;;21.88;100.00;101972.69;5065243;28;20028;-46
2023/08/23 07:26:55;;;;;;;0.00;0.00;;;;;;;22.11;100.00;101972.81;5065111;28;20047;-47
2023/08/23 07:29:20;;;;;;;0.00;0.00;;;;;;;21.95;100.00;101967.97;5064221;28;20020;-45
2023/08/23 07:31:46;;;;;;;0.00;0.00;;;;;;;21.42;100.00;101980.38;5062378;28;20093;-47
2023/08/23 07:34:11;;;;;;;0.00;0.00;;;;;;;21.15;100.00;101982.53;5066245;28;20029;-47
2023/08/23 07:36:36;;;;;;;0.00;0.00;;;;;;;21.45;100.00;101990.03;5068168;28;20028;-46
2023/08/23 07:39:03;;;;;;;0.00;0.00;;;;;;;21.53;100.00;101984.28;5067089;28;20115;-45
2023/08/23 07:41:28;;;;;;;0.00;0.00;;;;;;;21.92;100.00;101979.41;5049270;28;20025;-43
2023/08/23 07:43:53;;;;;;;0.00;0.00;;;;;;;22.66;100.00;101969.09;5060292;28;20017;-44
2023/08/23 07:46:19;;;;;;;0.00;0.00;;;;;;;23.00;100.00;101964.75;5058878;28;20478;-45
2023/08/23 07:48:44;;;;;;;0.00;0.00;;;;;;;23.24;100.00;101964.75;5060030;28;20041;-49
2023/08/23 07:51:10;;;;;;;0.00;0.00;;;;;;;23.76;100.00;101958.50;5056368;28;20460;-47
2023/08/23 07:53:36;;;;;;;0.00;0.00;;;;;;;24.06;100.00;101961.03;5066125;28;20371;-47
2023/08/23 07:56:01;;;;;;;0.00;0.00;;;;;;;24.18;100.00;101963.75;5064902;28;20028;-46
2023/08/23 07:58:26;;;;;;;0.00;0.00;;;;;;;24.16;100.00;101969.50;5070477;28;20432;-47
2023/08/23 08:00:52;;;;;;;0.00;0.00;;;;;;;23.74;100.00;101969.75;5065346;28;20083;-45
2023/08/23 08:03:17;;;;;;;0.00;0.00;;;;;;;23.67;100.00;101980.84;5067526;28;20024;-46
2023/08/23 08:05:43;;;;;;;0.00;0.00;;;;;;;24.26;100.00;101977.94;5068513;28;20036;-45
2023/08/23 08:08:08;;;;;;;0.00;0.00;;;;;;;24.89;100.00;101980.72;5059449;28;20017;-47
2023/08/23 08:10:33;;;;;;;0.00;0.00;;;;;;;25.11;100.00;101978.88;5058274;28;20024;-47
2023/08/23 08:12:59;;;;;;;0.00;0.00;;;;;;;24.91;100.00;101973.06;5062023;28;20437;-45
2023/08/23 08:15:25;;;;;;;0.00;0.00;;;;;;;26.18;100.00;101976.75;5063433;28;20123;-44
2023/08/23 08:17:52;;;;;;;0.00;0.00;;;;;;;26.54;100.00;101979.06;5066421;28;20126;-48
2023/08/23 08:20:18;;;;;;;0.00;0.00;;;;;;;26.86;100.00;101981.84;5051572;28;20025;-46
2023/08/23 08:22:44;;;;;;;0.00;0.00;;;;;;;27.47;100.00;101971.22;5064916;28;20040;-46
2023/08/23 08:25:09;;;;;;;0.00;0.00;;;;;;;27.76;100.00;101962.53;5036383;28;20029;-45
2023/08/23 08:27:35;;;;;;;0.00;0.00;;;;;;;27.68;100.00;101966.63;5076296;28;20077;-48
2023/08/23 08:30:00;;;;;;;0.00;0.00;;;;;;;27.60;100.00;101961.63;5074715;28;20035;-47
2023/08/23 08:32:26;;;;;;;0.00;0.00;;;;;;;27.93;100.00;101978.94;5068106;28;20386;-47
2023/08/23 08:34:52;;;;;;;0.00;0.00;;;;;;;27.41;100.00;101977.00;5041710;28;20024;-45
2023/08/23 08:37:18;;;;;;;0.00;0.00;;;;;;;26.70;100.00;101981.72;5072677;28;20122;-46
2023/08/23 08:39:44;;;;;;;0.00;0.00;;;;;;;27.31;100.00;101983.31;5076723;28;20025;-44
2023/08/23 08:42:10;;;;;;;0.00;0.00;;;;;;;27.49;100.00;101980.09;5072224;28;20733;-45
2023/08/23 08:44:35;;;;;;;0.00;0.00;;;;;;;27.65;100.00;101989.31;5067630;28;20054;-44
2023/08/23 08:47:01;;;;;;;0.00;0.00;;;;;;;28.52;100.00;101978.56;5069459;28;20111;-45
2023/08/23 08:49:26;;;;;;;0.00;0.00;;;;;;;29.17;100.00;101980.75;5051327;28;20039;-45
2023/08/23 08:51:54;;;;;;;0.00;0.00;;;;;;;28.50;100.00;101977.16;5072466;28;20441;-46
2023/08/23 08:54:20;;;;;;;0.00;0.00;;;;;;;29.15;100.00;101982.97;5045187;28;20028;-46
2023/08/23 08:56:47;;;;;;;0.00;0.00;;;;;;;28.60;100.00;101975.22;5054655;28;20385;-44
2023/08/23 08:59:13;;;;;;;;;;;;;;;28.89;100.00;101980.22;5072439;28;20025;-47
2023/08/23 09:01:38;;;;;;;0.00;0.00;;;;;;;28.97;100.00;101985.19;5082814;28;19943;-43
2023/08/23 09:04:04;;;;;;;0.00;0.00;;;;;;;29.09;100.00;101985.75;5050063;28;20052;-46
2023/08/23 09:06:30;;;;;;;0.00;0.00;;;;;;;29.42;100.00;101982.66;5050946;28;20025;-46
2023/08/23 09:08:55;;;;;;;0.00;0.00;;;;;;;29.36;100.00;101973.53;5070661;28;20040;-49
2023/08/23 09:11:21;;;;;;;0.00;0.00;;;;;;;29.22;100.00;101975.19;5040656;28;20029;-45
2023/08/23 09:13:47;;;;;;;0.00;0.00;;;;;;;30.10;97.76;101982.94;5064776;28;20043;-46
2023/08/23 09:16:13;;;;;;;0.13;0.00;;;;;;;30.18;95.90;101981.53;5073329;28;20474;-46
2023/08/23 09:18:43;;;;;;;0.00;0.00;;;;;;;30.87;91.78;101978.84;5058909;28;20040;-46
2023/08/23 09:21:10;;;;;;;0.00;0.00;;;;;;;30.09;93.21;101975.72;5052763;28;20044;-45
2023/08/23 09:23:35;;;;;;;0.00;0.00;;;;;;;29.20;95.68;101980.19;5070224;28;20029;-46
2023/08/23 09:26:01;;;;;;;0.00;0.00;;;;;;;28.88;95.83;101979.38;5060168;28;20021;-44
2023/08/23 09:28:28;;;;;;;0.00;0.00;;;;;;;29.01;99.16;101975.19;5071316;28;20155;-42
2023/08/23 09:30:54;;;;;;;0.00;0.00;;;;;;;29.12;97.10;101978.81;5073011;28;20541;-46
2023/08/23 09:33:20;;;;;;;0.00;0.00;;;;;;;29.49;96.32;101978.47;5070819;28;20104;-43
2023/08/23 09:35:48;;;;;;;0.00;0.00;;;;;;;29.20;98.15;101969.97;5070315;28;20044;-44
2023/08/23 09:38:20;;;;;;;0.00;0.00;;;;;;;29.97;95.28;101967.75;5071660;28;20024;-49
2023/08/23 09:40:47;;;;;;;0.00;0.00;;;;;;;30.45;91.16;101966.38;5069463;28;20421;-45
2023/08/23 09:43:12;;;;;;;;;;;;;;;29.89;87.87;101962.78;5061308;28;20032;-44
2023/08/23 09:45:38;;;;;;;0.00;0.00;;;;;;;30.08;88.47;101960.19;5069265;28;20405;-44
2023/08/23 09:48:05;;;;;;;0.00;0.00;;;;;;;29.33;91.69;101960.19;5070047;28;20032;-45
2023/08/23 09:50:32;;;;;;;0.00;0.00;;;;;;;29.43;89.89;101962.94;5067922;28;20333;-44
2023/08/23 09:53:04;;;;;;;0.00;0.00;;;;;;;29.66;89.30;101960.69;5070425;28;20390;-47
2023/08/23 09:55:30;;;;;;;0.00;0.00;;;;;;;30.07;90.45;101957.69;5035166;28;20036;-45
2023/08/23 09:57:56;;;;;;;0.00;0.00;;;;;;;29.82;87.93;101959.50;5069797;28;20039;-45
2023/08/23 10:00:22;;;;;;;0.00;0.00;;;;;;;29.56;87.30;101960.69;5050205;28;20040;-47
2023/08/23 10:02:48;;;;;;;0.10;0.00;;;;;;;29.46;83.29;101956.00;5070639;28;20440;-47
2023/08/23 10:05:13;;;;;;;0.00;0.00;;;;;;;29.61;78.55;101963.44;5070570;28;20417;-46
2023/08/23 10:07:42;;;;;;;0.00;0.00;;;;;;;29.58;79.59;101962.06;5070636;28;20020;-48
2023/08/23 10:10:09;;;;;;;0.00;0.00;;;;;;;29.35;77.69;101944.13;5069693;28;20116;-46
2023/08/23 10:12:49;;;;;;;0.00;0.00;;;;;;;30.34;77.34;101949.78;5072321;28;20406;-47
2023/08/23 10:15:17;;;;;;;0.00;0.00;;;;;;;30.66;74.88;101948.41;5071726;28;20047;-45
2023/08/23 10:17:44;;;;;;;0.00;0.00;;;;;;;30.79;73.11;101958.03;5072241;28;20028;-45
2023/08/23 10:20:11;;;;;;;0.00;0.00;;;;;;;30.99;72.67;101955.09;5069709;28;20028;-44
2023/08/23 10:22:37;;;;;;;0.00;0.00;;;;;;;31.13;73.12;101949.66;5071162;28;20154;-45
2023/08/23 10:25:23;;;;;;;0.00;0.00;;;;;;;31.30;72.19;101948.38;5071149;28;20043;-46
2023/08/23 10:27:51;;;;;;;0.00;0.00;;;;;;;30.86;70.88;101946.59;5070971;28;20177;-44
2023/08/23 10:30:25;;;;;;;0.00;0.00;;;;;;;31.19;71.86;101948.47;5052398;28;20120;-46
2023/08/23 10:32:52;;;;;;;0.03;0.00;;;;;;;31.49;72.19;101946.50;5052414;28;20033;-44
2023/08/23 10:35:23;;;;;;;;;;;;;;;31.32;74.18;101952.50;5071116;28;20012;-46
2023/08/23 10:37:50;;;;;;;0.00;0.00;;;;;;;31.01;74.45;101946.44;5070806;28;19908;-46
2023/08/23 10:40:18;;;;;;;0.00;0.00;;;;;;;31.13;74.55;101948.84;5070429;28;20556;-44
2023/08/23 10:42:44;;;;;;;0.00;0.00;;;;;;;31.66;71.18;101946.00;5070351;28;20093;-43
2023/08/23 10:45:10;;;;;;;0.00;0.00;;;;;;;31.23;72.29;101938.44;5052691;28;20028;-47
2023/08/23 10:47:36;;;;;;;0.00;0.00;;;;;;;30.96;73.02;101938.16;5070717;28;20023;-45
2023/08/23 10:50:03;;;;;;;0.00;0.00;;;;;;;30.61;70.83;101954.00;5069993;28;20025;-50
2023/08/23 10:52:30;;;;;;;0.00;0.00;;;;;;;30.68;72.86;101956.47;5070983;28;20454;-47
2023/08/23 10:54:56;;;;;;;0.00;0.00;;;;;;;30.87;71.54;101951.03;5070068;28;20450;-44
2023/08/23 10:57:21;;;;;;;0.00;0.00;;;;;;;31.10;71.89;101947.47;5070348;28;20062;-47
2023/08/23 10:59:47;;;;;;;0.00;0.00;;;;;;;31.09;70.40;101945.81;5051484;28;20033;-46
2023/08/23 11:02:12;;;;;;;0.00;0.00;;;;;;;31.17;70.83;101950.72;5070390;28;20102;-46
2023/08/23 11:04:37;;;;;;;0.00;0.00;;;;;;;31.00;71.32;101950.34;5070624;28;20027;-45
2023/08/23 11:07:03;;;;;;;0.00;0.00;;;;;;;31.48;70.56;101947.63;5052795;28;20397;-46
2023/08/23 11:09:28;;;;;;;0.00;0.00;;;;;;;31.30;71.77;101948.38;5070110;28;20025;-46
2023/08/23 11:11:54;;;;;;;0.00;0.00;;;;;;;31.20;75.21;101955.72;5068506;28;20036;-48
2023/08/23 11:14:19;;;;;;;0.00;0.00;;;;;;;31.26;75.79;101951.75;5070967;28;20032;-46